Time;durP1;ratioP1;P1;durP2;ratioP2;P2;SDS_P1;SDS_P2;PMS_P1;PMS_P2;Temp;Humidity;BMP_temperature;BMP_pressure;BME280_temperature;BME280_humidity;BME280_pressure;Samples;Min_cycle;Max_cycle;Signal;HPM_P1;HPM_P2
2022/07/06 00:01:22;;;;;;;5.85;2.42;;;18.70;98.30;;;;;;5065389;28;20391;-74
2022/07/06 00:03:47;;;;;;;7.43;2.58;;;18.60;98.90;;;;;;5066911;28;20020;-75
2022/07/06 00:06:13;;;;;;;3.38;2.53;;;18.20;99.90;;;;;;5053474;28;20039;-73
2022/07/06 00:08:39;;;;;;;4.13;2.20;;;18.20;99.90;;;;;;5044979;28;20107;-74
2022/07/06 00:11:05;;;;;;;4.07;2.30;;;18.20;99.90;;;;;;5071531;28;20059;-74
2022/07/06 00:13:31;;;;;;;3.78;2.05;;;18.30;99.90;;;;;;5066351;28;20075;-74
2022/07/06 00:15:57;;;;;;;3.60;2.40;;;18.30;99.90;;;;;;5053572;28;20483;-74
2022/07/06 00:18:23;;;;;;;4.45;2.38;;;18.10;99.90;;;;;;5044663;28;20021;-74
2022/07/06 00:20:48;;;;;;;3.00;2.47;;;18.10;99.90;;;;;;5058562;28;20020;-74
2022/07/06 00:23:14;;;;;;;4.63;2.33;;;18.20;99.90;;;;;;5060458;28;20028;-74
2022/07/06 00:25:40;;;;;;;2.63;2.20;;;18.10;99.90;;;;;;5048609;28;20060;-74
2022/07/06 00:28:05;;;;;;;3.88;2.40;;;17.90;99.90;;;;;;5065558;28;20025;-74
2022/07/06 00:30:31;;;;;;;3.65;2.30;;;17.90;99.90;;;;;;5072349;28;20390;-74
2022/07/06 00:32:58;;;;;;;4.70;2.42;;;18.10;99.90;;;;;;5072831;28;20097;-74
2022/07/06 00:35:26;;;;;;;3.17;2.50;;;18.20;99.90;;;;;;5067106;28;20387;-76
2022/07/06 00:37:52;;;;;;;4.72;2.17;;;17.90;99.90;;;;;;5052887;28;20103;-76
2022/07/06 00:40:18;;;;;;;5.43;2.35;;;18.00;99.90;;;;;;5058111;28;20470;-75
2022/07/06 00:42:46;;;;;;;3.63;2.28;;;18.00;99.90;;;;;;5060311;28;20029;-75
2022/07/06 00:45:13;;;;;;;6.00;2.45;;;18.00;99.90;;;;;;5048511;28;20025;-75
2022/07/06 00:47:40;;;;;;;3.60;2.20;;;17.90;99.90;;;;;;5066024;28;20032;-75
2022/07/06 00:50:14;;;;;;;7.15;2.47;;;18.00;99.90;;;;;;5046016;28;20029;-75
2022/07/06 00:52:45;;;;;;;4.18;2.40;;;18.30;99.90;;;;;;5058030;28;20021;-75
2022/07/06 00:55:12;;;;;;;4.90;2.55;;;18.20;99.90;;;;;;5064307;28;20017;-74
2022/07/06 00:57:39;;;;;;;4.05;2.92;;;17.50;99.90;;;;;;5067454;28;20039;-74
2022/07/06 01:00:07;;;;;;;5.13;2.72;;;17.60;99.90;;;;;;5072211;28;20104;-74
2022/07/06 01:02:34;;;;;;;4.13;2.50;;;17.90;99.90;;;;;;5071814;28;20029;-74
2022/07/06 01:05:00;;;;;;;3.00;2.30;;;18.10;99.90;;;;;;5054381;28;20124;-75
2022/07/06 01:07:27;;;;;;;3.50;2.38;;;18.30;99.90;;;;;;5058837;28;20082;-76
2022/07/06 01:09:53;;;;;;;4.60;2.53;;;18.30;99.90;;;;;;5062267;28;20025;-76
2022/07/06 01:12:19;;;;;;;5.30;2.70;;;18.40;99.90;;;;;;5065291;28;20394;-77
2022/07/06 01:14:45;;;;;;;5.55;2.47;;;18.20;99.90;;;;;;5061878;28;20030;-76
2022/07/06 01:17:13;;;;;;;6.78;2.47;;;18.00;99.90;;;;;;5058823;28;20029;-76
2022/07/06 01:19:39;;;;;;;2.53;2.22;;;17.90;99.90;;;;;;5061863;28;20067;-76
2022/07/06 01:22:04;;;;;;;2.47;2.28;;;17.90;99.90;;;;;;5064789;28;20068;-76
2022/07/06 01:24:30;;;;;;;3.83;2.10;;;18.10;99.90;;;;;;5040980;28;20036;-76
2022/07/06 01:26:56;;;;;;;3.70;2.22;;;18.00;99.90;;;;;;5068824;28;20024;-75
2022/07/06 01:29:22;;;;;;;2.22;2.10;;;17.80;99.90;;;;;;5053916;28;20028;-75
2022/07/06 01:31:49;;;;;;;2.58;2.20;;;17.40;99.90;;;;;;5054084;28;20544;-75
2022/07/06 01:34:16;;;;;;;4.63;2.42;;;17.50;99.90;;;;;;5051645;28;20032;-76
2022/07/06 01:36:41;;;;;;;2.70;2.30;;;17.50;99.90;;;;;;5051777;28;20017;-75
2022/07/06 01:39:08;;;;;;;2.60;2.00;;;17.50;99.90;;;;;;5062544;28;20035;-76
2022/07/06 01:41:34;;;;;;;3.00;2.10;;;17.40;99.90;;;;;;5066905;28;20032;-76
2022/07/06 01:44:01;;;;;;;4.18;2.30;;;17.30;99.90;;;;;;5051509;28;20062;-75
2022/07/06 01:46:26;;;;;;;3.60;2.28;;;17.20;99.90;;;;;;5065153;28;20094;-75
2022/07/06 01:48:59;;;;;;;3.40;2.13;;;17.20;99.90;;;;;;5051714;28;20059;-75
2022/07/06 01:51:24;;;;;;;4.97;2.42;;;17.30;99.90;;;;;;5064715;28;20064;-75
2022/07/06 01:53:51;;;;;;;3.53;2.30;;;17.20;99.90;;;;;;5063567;28;20028;-75
2022/07/06 01:56:19;;;;;;;5.72;2.40;;;17.20;99.90;;;;;;5058181;28;20029;-76
2022/07/06 01:58:45;;;;;;;2.97;2.10;;;17.00;99.90;;;;;;5059414;28;20025;-75
2022/07/06 02:01:17;;;;;;;2.72;2.30;;;17.00;99.90;;;;;;5064629;28;20170;-74
2022/07/06 02:03:43;;;;;;;3.53;2.80;;;17.10;99.90;;;;;;5065036;28;20074;-74
2022/07/06 02:06:09;;;;;;;2.83;2.10;;;17.20;99.90;;;;;;5042680;28;20029;-74
2022/07/06 02:08:35;;;;;;;4.13;2.30;;;17.10;99.90;;;;;;5068753;28;20024;-74
2022/07/06 02:11:05;;;;;;;5.05;2.30;;;16.80;99.90;;;;;;5051826;28;20028;-74
2022/07/06 02:13:31;;;;;;;3.40;2.40;;;16.60;99.90;;;;;;5068611;28;20039;-74
2022/07/06 02:15:56;;;;;;;4.28;2.10;;;16.80;99.90;;;;;;5069210;28;20028;-74
2022/07/06 02:18:22;;;;;;;5.13;2.40;;;16.90;99.90;;;;;;5037722;28;20055;-74
2022/07/06 02:20:48;;;;;;;2.92;2.63;;;17.10;99.90;;;;;;5056852;28;20029;-74
2022/07/06 02:23:13;;;;;;;3.33;2.50;;;16.90;99.90;;;;;;5062554;28;20603;-74
2022/07/06 02:25:39;;;;;;;4.05;2.80;;;16.90;99.90;;;;;;5068657;28;20035;-75
2022/07/06 02:28:04;;;;;;;3.03;2.35;;;16.80;99.90;;;;;;5050185;28;20024;-75
2022/07/06 02:30:30;;;;;;;5.20;2.42;;;16.60;99.90;;;;;;5061501;28;20083;-75
2022/07/06 02:32:55;;;;;;;3.17;2.55;;;16.60;99.90;;;;;;5045126;28;20029;-75
2022/07/06 02:35:21;;;;;;;6.28;2.60;;;16.40;99.90;;;;;;5068821;28;20033;-76
2022/07/06 02:37:47;;;;;;;4.00;2.45;;;16.30;99.90;;;;;;5068080;28;20028;-76
2022/07/06 02:40:12;;;;;;;2.58;2.13;;;16.30;99.90;;;;;;5061832;28;20103;-76
2022/07/06 02:42:38;;;;;;;3.95;2.15;;;16.20;99.90;;;;;;5044694;28;20626;-76
2022/07/06 02:45:05;;;;;;;2.60;2.00;;;16.60;99.90;;;;;;5068782;28;20028;-75
2022/07/06 02:47:30;;;;;;;2.90;1.85;;;16.60;99.90;;;;;;5067638;28;20024;-77
2022/07/06 02:49:56;;;;;;;3.28;2.20;;;16.60;99.90;;;;;;5044435;28;20505;-75
2022/07/06 02:52:22;;;;;;;2.80;2.35;;;16.50;99.90;;;;;;5062455;28;20025;-75
2022/07/06 02:54:48;;;;;;;3.22;2.05;;;16.50;99.90;;;;;;5056238;28;20474;-75
2022/07/06 02:57:14;;;;;;;4.07;2.15;;;16.30;99.90;;;;;;5045178;28;20027;-75
2022/07/06 02:59:40;;;;;;;3.80;2.35;;;16.30;99.90;;;;;;5068342;28;20151;-76
2022/07/06 03:02:06;;;;;;;2.38;2.00;;;16.30;99.90;;;;;;5067030;28;20103;-76
2022/07/06 03:04:32;;;;;;;3.95;2.22;;;16.30;99.90;;;;;;5056146;28;20036;-76
2022/07/06 03:06:58;;;;;;;2.88;2.58;;;16.20;99.90;;;;;;5054814;28;20496;-75
2022/07/06 03:09:24;;;;;;;3.50;2.15;;;16.40;99.90;;;;;;5061080;28;20103;-75
2022/07/06 03:11:49;;;;;;;3.42;2.00;;;16.10;99.90;;;;;;5061476;28;20027;-75
2022/07/06 03:14:15;;;;;;;5.13;2.40;;;16.20;99.90;;;;;;5074140;28;20029;-74
2022/07/06 03:16:40;;;;;;;4.70;2.78;;;16.20;99.90;;;;;;5060711;28;20075;-72
2022/07/06 03:19:06;;;;;;;3.35;2.30;;;16.20;99.90;;;;;;5054540;28;20021;-73
2022/07/06 03:21:32;;;;;;;3.67;2.70;;;16.10;99.90;;;;;;5053870;28;20375;-72
2022/07/06 03:23:58;;;;;;;3.88;2.55;;;16.20;99.90;;;;;;5060315;28;20056;-73
2022/07/06 03:26:23;;;;;;;4.00;2.95;;;16.20;99.90;;;;;;5056568;28;20036;-72
2022/07/06 03:28:49;;;;;;;6.00;2.80;;;16.20;99.90;;;;;;5074214;28;20528;-72
2022/07/06 03:31:14;;;;;;;4.82;2.45;;;15.60;99.90;;;;;;5073702;28;20067;-72
2022/07/06 03:33:40;;;;;;;3.60;2.88;;;15.10;99.90;;;;;;5074035;28;20032;-72
2022/07/06 03:36:07;;;;;;;2.92;2.63;;;15.60;99.90;;;;;;5074301;28;20028;-72
2022/07/06 03:38:33;;;;;;;3.60;2.97;;;15.80;99.90;;;;;;5074115;28;20025;-73
2022/07/06 03:40:58;;;;;;;2.88;2.50;;;15.40;99.90;;;;;;5073518;28;20050;-73
2022/07/06 03:43:24;;;;;;;5.03;2.70;;;14.20;99.90;;;;;;5073979;28;20036;-72
2022/07/06 03:45:49;;;;;;;3.83;2.80;;;14.20;99.90;;;;;;5073915;28;20029;-72
2022/07/06 03:48:15;;;;;;;3.05;2.75;;;14.60;99.90;;;;;;5073766;28;20051;-73
2022/07/06 03:50:40;;;;;;;2.90;2.70;;;14.90;99.90;;;;;;5073189;28;20028;-72
2022/07/06 03:53:06;;;;;;;6.60;3.13;;;15.00;99.90;;;;;;5073553;28;20467;-73
2022/07/06 03:55:32;;;;;;;4.45;3.38;;;14.30;99.90;;;;;;5073504;28;20025;-73
2022/07/06 03:57:57;;;;;;;3.40;3.10;;;14.00;99.90;;;;;;5073779;28;20037;-72
2022/07/06 04:00:23;;;;;;;3.60;2.90;;;14.30;99.90;;;;;;5073026;28;20036;-72
2022/07/06 04:02:48;;;;;;;4.70;3.25;;;14.60;99.90;;;;;;5073543;28;20032;-72
2022/07/06 04:05:15;;;;;;;4.68;3.22;;;14.60;99.90;;;;;;5043589;28;20057;-72
2022/07/06 04:07:40;;;;;;;4.13;3.40;;;14.70;99.90;;;;;;5053294;28;20028;-72
2022/07/06 04:10:07;;;;;;;5.30;2.83;;;14.90;99.90;;;;;;5053237;28;20040;-72
2022/07/06 04:12:43;;;;;;;4.32;3.42;;;15.10;99.90;;;;;;5049250;28;20024;-72
2022/07/06 04:15:10;;;;;;;5.93;3.67;;;15.30;99.90;;;;;;5060432;28;20024;-72
2022/07/06 04:17:54;;;;;;;3.97;3.00;;;15.40;99.90;;;;;;5053211;28;20033;-72
2022/07/06 04:20:20;;;;;;;6.00;3.05;;;15.30;99.90;;;;;;5052494;28;20143;-72
2022/07/06 04:22:47;;;;;;;7.90;4.35;;;15.40;99.90;;;;;;5053336;28;20036;-73
2022/07/06 04:25:12;;;;;;;6.53;3.92;;;15.50;99.90;;;;;;5052983;28;20392;-73
2022/07/06 04:27:38;;;;;;;3.75;3.30;;;15.70;99.90;;;;;;5052827;28;20099;-73
2022/07/06 04:30:05;;;;;;;4.68;2.97;;;15.80;99.90;;;;;;5052964;28;20032;-72
2022/07/06 04:32:31;;;;;;;6.70;3.20;;;15.90;99.90;;;;;;5034853;28;20029;-72
2022/07/06 04:34:57;;;;;;;4.50;3.03;;;15.80;99.90;;;;;;5052901;28;20119;-73
2022/07/06 04:37:22;;;;;;;3.42;2.72;;;15.90;99.90;;;;;;5035333;28;20032;-72
2022/07/06 04:39:48;;;;;;;3.83;2.60;;;16.00;99.90;;;;;;5052842;28;20029;-72
2022/07/06 04:42:14;;;;;;;4.40;2.58;;;15.80;99.90;;;;;;5052236;28;20029;-72
2022/07/06 04:44:39;;;;;;;4.45;3.33;;;15.70;99.90;;;;;;5052799;28;20403;-72
2022/07/06 04:47:05;;;;;;;4.25;3.42;;;15.50;99.90;;;;;;5052663;28;20033;-72
2022/07/06 04:49:31;;;;;;;4.20;3.00;;;15.30;99.90;;;;;;5052795;28;20033;-72
2022/07/06 04:51:57;;;;;;;3.03;2.72;;;15.30;99.90;;;;;;5051990;28;20037;-72
2022/07/06 04:54:22;;;;;;;2.92;2.53;;;15.60;99.90;;;;;;5052210;28;20029;-72
2022/07/06 04:56:48;;;;;;;3.13;2.70;;;15.40;99.90;;;;;;5052585;28;20568;-72
2022/07/06 04:59:13;;;;;;;3.20;2.90;;;15.70;99.90;;;;;;5067356;28;20048;-72
2022/07/06 05:01:40;;;;;;;5.13;3.00;;;15.70;99.90;;;;;;5063675;28;20032;-72
2022/07/06 05:04:06;;;;;;;6.35;4.72;;;16.10;99.90;;;;;;5052220;28;20028;-72
2022/07/06 05:06:32;;;;;;;5.68;4.43;;;15.80;99.90;;;;;;5052273;28;20025;-72
2022/07/06 05:08:59;;;;;;;6.22;4.45;;;15.90;99.90;;;;;;5052139;28;20024;-72
2022/07/06 05:11:25;;;;;;;7.45;3.85;;;16.10;99.90;;;;;;5057095;28;20025;-73
2022/07/06 05:13:51;;;;;;;3.85;3.05;;;16.30;99.90;;;;;;5034441;28;20047;-72
2022/07/06 05:16:16;;;;;;;6.20;2.70;;;16.50;99.90;;;;;;5052209;28;20052;-72
2022/07/06 05:18:42;;;;;;;3.55;2.20;;;17.00;99.90;;;;;;5052078;28;20025;-72
2022/07/06 05:21:07;;;;;;;3.22;2.60;;;17.20;99.90;;;;;;5051493;28;20445;-72
2022/07/06 05:23:33;;;;;;;3.20;2.55;;;17.00;99.90;;;;;;5053760;28;20071;-72
2022/07/06 05:25:59;;;;;;;6.75;2.53;;;16.70;99.90;;;;;;5072111;28;20029;-72
2022/07/06 05:28:24;;;;;;;3.10;2.50;;;16.70;99.90;;;;;;5056795;28;20041;-72
2022/07/06 05:30:50;;;;;;;3.90;2.88;;;16.80;99.90;;;;;;5051375;28;20021;-70
2022/07/06 05:33:16;;;;;;;3.33;2.50;;;16.90;99.90;;;;;;5051664;28;20490;-72
2022/07/06 05:35:41;;;;;;;3.25;2.75;;;16.90;99.90;;;;;;5051988;28;20025;-71
2022/07/06 05:38:07;;;;;;;4.75;2.80;;;17.10;99.90;;;;;;5051572;28;20033;-72
2022/07/06 05:40:33;;;;;;;5.07;2.70;;;17.20;99.90;;;;;;5058986;28;20029;-72
2022/07/06 05:42:59;;;;;;;5.15;2.50;;;17.10;99.90;;;;;;5071791;28;20025;-72
2022/07/06 05:45:24;;;;;;;2.92;2.53;;;17.20;99.90;;;;;;5071747;28;20406;-72
2022/07/06 05:50:34;;;;;;;2.65;2.45;;;17.50;99.90;;;;;;5049768;28;20075;-72
2022/07/06 05:53:01;;;;;;;6.35;2.70;;;17.60;99.90;;;;;;5051380;28;20029;-72
2022/07/06 05:55:28;;;;;;;5.18;2.38;;;17.60;99.90;;;;;;5050896;28;20029;-72
2022/07/06 05:57:54;;;;;;;2.75;2.40;;;17.70;99.90;;;;;;5052073;28;20403;-72
2022/07/06 06:00:21;;;;;;;4.07;2.42;;;17.30;99.90;;;;;;5050861;28;20036;-72
2022/07/06 06:02:46;;;;;;;4.53;2.42;;;17.50;99.90;;;;;;5051663;28;20543;-72
2022/07/06 06:05:14;;;;;;;5.35;2.30;;;17.90;99.90;;;;;;5051412;28;20100;-71
2022/07/06 06:07:39;;;;;;;3.40;2.08;;;18.10;99.90;;;;;;5050852;28;20025;-72
2022/07/06 06:10:08;;;;;;;6.07;2.30;;;18.30;99.90;;;;;;5040139;28;20432;-72
2022/07/06 06:12:33;;;;;;;4.97;2.35;;;18.30;99.90;;;;;;5047844;28;20024;-72
2022/07/06 06:14:59;;;;;;;3.28;2.30;;;18.40;99.90;;;;;;5071475;28;20479;-72
2022/07/06 06:17:25;;;;;;;3.53;2.20;;;18.20;99.90;;;;;;5066004;28;20487;-72
2022/07/06 06:19:50;;;;;;;6.15;2.63;;;18.40;99.90;;;;;;5051308;28;20372;-72
2022/07/06 06:22:16;;;;;;;3.85;2.20;;;18.40;99.90;;;;;;5050579;28;20049;-72
2022/07/06 06:24:41;;;;;;;4.30;2.47;;;18.20;99.90;;;;;;5049540;28;20096;-71
2022/07/06 06:27:07;;;;;;;4.47;2.20;;;18.20;99.90;;;;;;5050978;28;20082;-72
2022/07/06 06:29:33;;;;;;;2.53;2.20;;;18.20;99.90;;;;;;5062542;28;20028;-71
2022/07/06 06:31:58;;;;;;;4.75;2.72;;;18.60;99.90;;;;;;5052569;28;20023;-72
2022/07/06 06:34:24;;;;;;;5.22;2.60;;;18.80;99.90;;;;;;5071070;28;20094;-72
2022/07/06 06:36:49;;;;;;;3.80;2.45;;;18.70;99.90;;;;;;5071161;28;20100;-72
2022/07/06 06:39:15;;;;;;;4.50;2.63;;;18.80;99.90;;;;;;5071142;28;20099;-72
2022/07/06 06:41:41;;;;;;;4.22;2.45;;;19.00;99.90;;;;;;5070413;28;20082;-72
2022/07/06 06:44:06;;;;;;;6.25;2.40;;;19.40;99.90;;;;;;5071040;28;20025;-72
2022/07/06 06:46:32;;;;;;;3.05;2.13;;;19.20;99.90;;;;;;5071059;28;20032;-72
2022/07/06 06:48:57;;;;;;;5.65;2.55;;;19.00;99.90;;;;;;5060139;28;20048;-72
2022/07/06 06:51:23;;;;;;;4.18;2.40;;;18.90;99.90;;;;;;5053687;28;20471;-72
2022/07/06 06:53:48;;;;;;;2.50;1.98;;;18.80;99.90;;;;;;5054746;28;20068;-72
2022/07/06 06:56:14;;;;;;;3.00;2.28;;;18.90;99.90;;;;;;5030151;28;20648;-72
2022/07/06 06:58:40;;;;;;;4.95;2.20;;;19.10;99.90;;;;;;5074374;28;20082;-72
2022/07/06 07:01:05;;;;;;;3.97;2.17;;;19.00;99.90;;;;;;5055954;28;20573;-72
2022/07/06 07:03:31;;;;;;;4.70;2.00;;;18.90;99.90;;;;;;5063881;28;20029;-71
2022/07/06 07:05:57;;;;;;;4.88;2.08;;;19.20;99.90;;;;;;5054520;28;20033;-71
2022/07/06 07:08:23;;;;;;;4.00;1.85;;;19.40;99.90;;;;;;5054488;28;20029;-72
2022/07/06 07:10:48;;;;;;;4.00;1.98;;;19.50;99.90;;;;;;5067135;28;20025;-72
2022/07/06 07:13:14;;;;;;;2.47;2.28;;;19.40;99.90;;;;;;5054392;28;20025;-71
2022/07/06 07:15:39;;;;;;;4.63;2.10;;;19.70;99.90;;;;;;5054507;28;20032;-72
2022/07/06 07:18:06;;;;;;;4.47;2.10;;;19.90;99.90;;;;;;5054428;28;20083;-72
2022/07/06 07:20:33;;;;;;;5.03;1.95;;;20.10;99.90;;;;;;5053505;28;20021;-72
2022/07/06 07:22:59;;;;;;;4.57;2.03;;;19.50;99.90;;;;;;5052400;28;20522;-72
2022/07/06 07:25:26;;;;;;;2.58;2.05;;;19.20;99.90;;;;;;5055567;28;20082;-72
2022/07/06 07:27:51;;;;;;;4.35;2.30;;;19.30;99.90;;;;;;5057556;28;20028;-72
2022/07/06 07:30:17;;;;;;;4.35;2.22;;;19.10;99.90;;;;;;5053539;28;20025;-72
2022/07/06 07:32:43;;;;;;;3.30;2.10;;;19.30;99.90;;;;;;5054061;28;20086;-72
2022/07/06 07:35:09;;;;;;;3.67;2.00;;;19.70;99.90;;;;;;5053876;28;20025;-71
2022/07/06 07:37:35;;;;;;;3.50;2.17;;;19.90;99.90;;;;;;5064652;28;20540;-71
2022/07/06 07:40:00;;;;;;;4.35;2.20;;;20.10;99.90;;;;;;5073866;28;20032;-72
2022/07/06 07:42:26;;;;;;;3.88;2.20;;;19.80;99.90;;;;;;5073288;28;20511;-72
2022/07/06 07:44:52;;;;;;;3.53;2.13;;;19.90;99.90;;;;;;5073791;28;20055;-72
2022/07/06 07:47:18;;;;;;;4.80;2.20;;;20.00;99.90;;;;;;5055816;28;20060;-72
2022/07/06 07:49:43;;;;;;;3.83;2.65;;;20.10;99.90;;;;;;5073728;28;20025;-72
2022/07/06 07:52:09;;;;;;;2.35;2.00;;;20.10;99.90;;;;;;5073148;28;20046;-72
2022/07/06 07:54:35;;;;;;;6.70;2.70;;;20.10;99.90;;;;;;5073496;28;20021;-72
2022/07/06 07:57:01;;;;;;;4.75;2.30;;;20.20;99.90;;;;;;5063429;28;20078;-71
2022/07/06 07:59:26;;;;;;;3.10;2.03;;;20.10;99.90;;;;;;5056805;28;20042;-72
2022/07/06 08:01:52;;;;;;;3.08;2.08;;;19.90;99.90;;;;;;5062690;28;20027;-72
2022/07/06 08:04:18;;;;;;;5.50;2.17;;;20.10;99.90;;;;;;5053231;28;20395;-72
2022/07/06 08:06:43;;;;;;;2.85;2.20;;;20.00;99.90;;;;;;5053463;28;20025;-72
2022/07/06 08:09:09;;;;;;;2.20;2.00;;;20.00;99.90;;;;;;5053410;28;20533;-73
2022/07/06 08:11:35;;;;;;;3.38;2.22;;;20.10;99.90;;;;;;5052731;28;20036;-71
2022/07/06 08:14:01;;;;;;;3.30;2.08;;;20.30;99.90;;;;;;5056866;28;20147;-72
2022/07/06 08:16:27;;;;;;;5.57;2.03;;;20.80;99.90;;;;;;5073269;28;20104;-72
2022/07/06 08:18:53;;;;;;;4.57;2.20;;;20.50;99.90;;;;;;5055898;28;20112;-73
2022/07/06 08:21:18;;;;;;;5.50;2.25;;;20.70;99.90;;;;;;5052482;28;20033;-72
2022/07/06 08:23:44;;;;;;;5.55;2.00;;;20.40;99.90;;;;;;5053081;28;20025;-72
2022/07/06 08:26:09;;;;;;;3.03;2.00;;;20.40;99.90;;;;;;5063495;28;20032;-72
2022/07/06 08:28:35;;;;;;;5.35;2.33;;;20.60;99.90;;;;;;5056451;28;20039;-72
2022/07/06 08:31:01;;;;;;;3.25;2.05;;;20.90;99.90;;;;;;5052434;28;20055;-72
2022/07/06 08:33:26;;;;;;;5.18;2.05;;;20.80;99.90;;;;;;5069588;28;20038;-72
2022/07/06 08:35:52;;;;;;;4.13;2.63;;;20.50;99.90;;;;;;5072879;28;20021;-72
2022/07/06 08:38:18;;;;;;;4.03;2.20;;;20.40;99.90;;;;;;5055711;28;20033;-72
2022/07/06 08:40:47;;;;;;;3.15;2.20;;;20.50;99.90;;;;;;5051981;28;20067;-72
2022/07/06 08:43:14;;;;;;;3.05;2.05;;;20.50;99.90;;;;;;5052642;28;20031;-72
2022/07/06 08:45:41;;;;;;;4.45;2.22;;;20.70;99.90;;;;;;5052822;28;20017;-72
2022/07/06 08:48:07;;;;;;;2.75;2.30;;;20.90;99.90;;;;;;5052401;28;20021;-72
2022/07/06 08:50:33;;;;;;;4.22;2.08;;;20.40;99.90;;;;;;5052023;28;20021;-72
2022/07/06 08:52:59;;;;;;;6.75;2.15;;;20.30;99.90;;;;;;5057171;28;20023;-72
2022/07/06 08:55:26;;;;;;;4.25;2.30;;;20.00;99.90;;;;;;5060989;28;20025;-72
2022/07/06 08:57:55;;;;;;;5.55;2.30;;;20.50;99.90;;;;;;5052983;28;20029;-73
2022/07/06 09:00:21;;;;;;;3.47;2.50;;;20.60;99.90;;;;;;5063734;28;20474;-72
2022/07/06 09:02:50;;;;;;;2.80;2.13;;;20.90;99.90;;;;;;5072236;28;20071;-72
2022/07/06 09:05:17;;;;;;;5.30;2.40;;;21.00;99.90;;;;;;5041654;28;20033;-72
2022/07/06 09:07:54;;;;;;;4.93;2.83;;;21.00;99.90;;;;;;5052000;28;20664;-74
2022/07/06 09:10:21;;;;;;;4.65;2.22;;;21.00;99.90;;;;;;5051580;28;20101;-72
2022/07/06 09:12:48;;;;;;;5.38;2.50;;;21.00;99.90;;;;;;5051038;28;20024;-72
2022/07/06 09:15:14;;;;;;;7.03;2.72;;;21.20;99.90;;;;;;5057670;28;20376;-72
2022/07/06 09:17:41;;;;;;;5.80;2.72;;;20.80;99.90;;;;;;5052023;28;20510;-72
2022/07/06 09:20:12;;;;;;;4.07;2.50;;;21.60;99.90;;;;;;5033937;28;20036;-72
2022/07/06 09:22:39;;;;;;;4.53;2.58;;;21.80;99.90;;;;;;5034153;28;20028;-72
2022/07/06 09:25:10;;;;;;;4.03;2.30;;;21.50;99.90;;;;;;5033910;28;20027;-72
2022/07/06 09:27:47;;;;;;;5.72;2.53;;;21.90;99.90;;;;;;5051698;28;20119;-72
2022/07/06 09:30:13;;;;;;;6.55;3.55;;;21.90;99.90;;;;;;5055380;28;20020;-72
2022/07/06 09:32:43;;;;;;;4.85;2.60;;;22.10;99.90;;;;;;5042959;28;20022;-72
2022/07/06 09:35:27;;;;;;;3.90;2.35;;;21.60;99.90;;;;;;5051622;28;20043;-72
2022/07/06 09:38:01;;;;;;;3.47;2.42;;;21.40;99.90;;;;;;5051721;28;20053;-72
2022/07/06 09:40:28;;;;;;;5.65;2.40;;;21.10;99.90;;;;;;5033366;28;20522;-72
2022/07/06 09:43:18;;;;;;;3.15;2.42;;;21.70;99.90;;;;;;5065185;28;20502;-73
2022/07/06 09:45:52;;;;;;;4.30;2.72;;;21.30;99.90;;;;;;5051708;28;20035;-73
2022/07/06 09:48:22;;;;;;;4.05;2.50;;;21.50;99.90;;;;;;5070548;28;20021;-72
2022/07/06 09:50:53;;;;;;;5.93;2.65;;;21.60;99.90;;;;;;5070905;28;20100;-72
2022/07/06 09:53:20;;;;;;;3.58;2.17;;;21.80;99.90;;;;;;5071248;28;20029;-72
2022/07/06 09:55:47;;;;;;;4.57;2.80;;;22.20;99.90;;;;;;5057801;28;20083;-72
2022/07/06 09:58:13;;;;;;;2.80;2.10;;;22.40;99.90;;;;;;5051583;28;20395;-72
2022/07/06 10:00:39;;;;;;;4.25;2.28;;;22.30;99.90;;;;;;5050864;28;20025;-72
2022/07/06 10:03:05;;;;;;;3.50;2.47;;;22.10;99.90;;;;;;5051452;28;20551;-72
2022/07/06 10:05:31;;;;;;;4.03;1.98;;;22.40;99.50;;;;;;5038720;28;20026;-72
2022/07/06 10:08:00;;;;;;;3.33;2.30;;;22.70;99.60;;;;;;5071238;28;20036;-72
2022/07/06 10:10:29;;;;;;;4.78;2.10;;;22.80;99.00;;;;;;5070611;28;20020;-72
2022/07/06 10:12:56;;;;;;;3.28;1.88;;;23.20;99.70;;;;;;5055020;28;20388;-72
2022/07/06 10:15:27;;;;;;;6.07;1.83;;;22.30;99.90;;;;;;5051329;28;20025;-72
2022/07/06 10:17:54;;;;;;;4.35;2.00;;;21.60;99.90;;;;;;5051309;28;20322;-72
2022/07/06 10:20:21;;;;;;;6.05;2.25;;;21.50;99.90;;;;;;5050571;28;20037;-72
2022/07/06 10:22:50;;;;;;;3.78;1.90;;;22.20;99.90;;;;;;5051009;28;20082;-72
2022/07/06 10:25:17;;;;;;;2.30;2.05;;;22.80;99.90;;;;;;5050749;28;20029;-72
2022/07/06 10:27:45;;;;;;;3.67;1.80;;;22.90;99.30;;;;;;5054772;28;20025;-73
2022/07/06 10:30:11;;;;;;;2.50;2.00;;;22.90;99.80;;;;;;5071823;28;20020;-72
2022/07/06 10:32:39;;;;;;;4.55;2.00;;;22.20;99.30;;;;;;5065110;28;20103;-72
2022/07/06 10:35:05;;;;;;;4.22;2.05;;;22.10;99.30;;;;;;5074567;28;20479;-72
2022/07/06 10:37:32;;;;;;;2.28;1.67;;;22.10;99.00;;;;;;5074683;28;20035;-72
2022/07/06 10:42:43;;;;;;;3.17;1.85;;;21.60;99.50;;;;;;5074923;28;20063;-72
2022/07/06 10:45:11;;;;;;;3.80;1.70;;;22.20;99.10;;;;;;5074813;28;20025;-72
2022/07/06 10:47:37;;;;;;;2.80;1.70;;;23.10;98.20;;;;;;5074618;28;20399;-73
2022/07/06 10:50:04;;;;;;;4.40;2.00;;;23.50;97.80;;;;;;5074909;28;20020;-72
2022/07/06 10:52:51;;;;;;;3.63;1.77;;;23.10;98.30;;;;;;5074170;28;20460;-73
2022/07/06 10:55:36;;;;;;;4.18;1.58;;;23.50;96.60;;;;;;5074827;28;20025;-72
2022/07/06 10:58:03;;;;;;;4.05;1.95;;;23.20;97.20;;;;;;5074618;28;20031;-72
2022/07/06 11:00:52;;;;;;;5.10;1.65;;;22.60;96.70;;;;;;5061003;28;20364;-72
2022/07/06 11:03:33;;;;;;;3.92;1.70;;;23.10;96.40;;;;;;5041930;28;20088;-72
2022/07/06 11:06:04;;;;;;;4.43;1.80;;;22.90;95.60;;;;;;5045402;28;20499;-72
2022/07/06 11:08:49;;;;;;;3.95;1.70;;;22.60;96.90;;;;;;5047751;28;20025;-73
2022/07/06 11:11:25;;;;;;;3.45;1.55;;;22.20;96.90;;;;;;5048906;28;20017;-72
2022/07/06 11:13:55;;;;;;;;;;;22.00;96.50;;;;;;5055937;28;20090;-72
2022/07/06 11:16:25;;;;;;;3.90;1.77;;;22.90;97.00;;;;;;5057160;28;19908;-72
2022/07/06 11:18:59;;;;;;;2.95;1.48;;;23.70;95.50;;;;;;5056798;28;20502;-72
2022/07/06 11:21:36;;;;;;;3.17;2.15;;;24.00;93.90;;;;;;5062478;28;20061;-72
2022/07/06 11:24:04;;;;;;;3.13;1.60;;;24.10;94.40;;;;;;5052319;28;20035;-72
2022/07/06 11:26:32;;;;;;;2.92;1.75;;;24.20;94.10;;;;;;5030883;28;20419;-72
2022/07/06 11:29:00;;;;;;;3.58;1.67;;;24.30;94.90;;;;;;5048896;28;20025;-72
2022/07/06 11:31:26;;;;;;;3.40;1.80;;;24.60;94.10;;;;;;5046849;28;20048;-72
2022/07/06 11:33:51;;;;;;;1.42;1.33;;;24.50;94.00;;;;;;5053817;28;20114;-72
2022/07/06 11:36:19;;;;;;;2.75;1.65;;;24.90;95.30;;;;;;5053112;28;20135;-72
2022/07/06 11:38:46;;;;;;;3.15;1.60;;;24.40;93.50;;;;;;5056039;28;20379;-72
2022/07/06 11:41:14;;;;;;;2.92;1.60;;;24.20;92.50;;;;;;5057022;28;20048;-72
2022/07/06 11:43:45;;;;;;;4.55;1.63;;;23.60;93.60;;;;;;5053755;28;20021;-72
2022/07/06 11:46:20;;;;;;;3.05;1.70;;;23.70;92.90;;;;;;5053619;28;20025;-72
2022/07/06 11:48:48;;;;;;;2.72;1.65;;;24.10;93.20;;;;;;5052660;28;20035;-72
2022/07/06 11:51:13;;;;;;;3.25;1.77;;;23.80;94.50;;;;;;5052100;28;20028;-72
2022/07/06 11:53:44;;;;;;;2.35;1.50;;;23.50;94.20;;;;;;5045588;28;20021;-73
2022/07/06 11:56:10;;;;;;;3.97;1.30;;;24.60;93.70;;;;;;5048608;28;20564;-72
2022/07/06 11:58:38;;;;;;;2.95;1.40;;;25.10;92.30;;;;;;5051743;28;20041;-72
2022/07/06 12:01:08;;;;;;;3.42;1.48;;;24.80;92.80;;;;;;5048285;28;20091;-72
2022/07/06 12:03:35;;;;;;;1.60;1.48;;;23.30;92.80;;;;;;5054940;28;20104;-72
2022/07/06 12:06:05;;;;;;;2.63;1.58;;;23.10;94.00;;;;;;5052259;28;20021;-72
2022/07/06 12:08:33;;;;;;;5.80;3.58;;;22.90;94.50;;;;;;5054887;28;20032;-72
2022/07/06 12:10:59;;;;;;;4.03;1.88;;;23.00;94.90;;;;;;5053195;28;20446;-72
2022/07/06 12:13:25;;;;;;;4.30;1.92;;;23.20;94.40;;;;;;5052381;28;20021;-72
2022/07/06 12:15:50;;;;;;;3.75;1.60;;;23.40;94.00;;;;;;5054456;28;20104;-72
2022/07/06 12:18:16;;;;;;;2.67;1.73;;;24.20;93.90;;;;;;5049477;28;20086;-72
2022/07/06 12:20:42;;;;;;;3.58;1.50;;;24.50;93.30;;;;;;5053733;28;20056;-73
2022/07/06 12:23:08;;;;;;;2.50;1.75;;;25.10;92.70;;;;;;5052028;28;20074;-73
2022/07/06 12:25:36;;;;;;;2.50;1.60;;;24.90;92.20;;;;;;5053904;28;20029;-72
2022/07/06 12:28:03;;;;;;;4.47;1.70;;;24.60;92.20;;;;;;5052162;28;20025;-72
2022/07/06 12:30:29;;;;;;;3.75;1.60;;;24.70;92.30;;;;;;5052103;28;20017;-73
2022/07/06 12:33:15;;;;;;;4.00;1.42;;;24.80;92.10;;;;;;5052892;28;20029;-72
2022/07/06 12:35:41;;;;;;;3.25;1.80;;;24.80;91.00;;;;;;5052995;28;20032;-72
2022/07/06 12:38:07;;;;;;;4.32;1.63;;;25.40;91.70;;;;;;5052640;28;20102;-72
2022/07/06 12:40:35;;;;;;;4.43;1.52;;;24.70;91.70;;;;;;5052180;28;20450;-72
2022/07/06 12:43:00;;;;;;;2.20;1.40;;;23.70;93.10;;;;;;5054899;28;20033;-73
2022/07/06 12:45:30;;;;;;;3.08;1.70;;;23.60;91.60;;;;;;5052233;28;20067;-72
2022/07/06 12:48:04;;;;;;;2.15;1.70;;;23.50;92.00;;;;;;5040623;28;20025;-72
2022/07/06 12:50:36;;;;;;;4.82;1.90;;;23.20;92.00;;;;;;5062756;28;21043;-72
2022/07/06 12:53:04;;;;;;;1.85;1.50;;;24.20;92.00;;;;;;5072572;28;20021;-72